Purdin, MO

10:46 PM CDT on May 25, 2015 (GMT -0500)
North Central Missouri | | Change Station
CLOSE
Current Station
Personal Weather Station
Location: Browning, MO
Elevation: 810 ft
Nearby Weather Stations

Elev 810 ft 40.04 °N, 93.16 °W | Updated 16 seconds ago

Clear
Clear
67.7 °F
Feels Like 67.7 °F
N
0.0
Wind Variable Wind from South
Gusts 0.0 mph

Today
High -- | Low -- °F
--% Chance of Precip.
Yesterday
High -- | Low -- °F
Precip. -- in
5:49 AM 8:29 PM
First Quarter, 54% visible
Pressure 29.89 in
Visibility 10.0 miles
Clouds Clear
Dew Point 68 °F
Humidity 100%
Rainfall 0.12 in
Snow Depth Not available.
UV 0 out of 12
Pollen 4.80 out of 12
Air Quality Not available.
Flu Activity Sporadic
METAR KIRK 260255Z AUTO 14007KT 10SM CLR 21/19 A2989 RMK AO2 SLP120 T02110189 53005

More Conditions Fewer Conditions

Pressure 29.89 in
Visibility 10.0 miles
Clouds Clear
Dew Point 68 °F
Humidity 100%
Rainfall 0.12 in
Snow Depth Not available.
UV 0 out of 12
Pollen 4.80 out of 12
Air Quality Not available.
Flu Activity Sporadic
METAR KIRK 260255Z AUTO 14007KT 10SM CLR 21/19 A2989 RMK AO2 SLP120 T02110189 53005

More Conditions Fewer Conditions

10-Day Weather Forecast

Almanac

Astronomy

May. 25, 2015 Rise Set
Actual Time
Civil Twilight
Nautical Twilight
Astronomical Twilight
Moon
Length of Visible Light
Length of Day
Tomorrow will be .
, % of the Moon is Illuminated

Today's Extremes

State Highs State Lows

Community

WunderPhotos

Upload Photos

1,824,269 photos uploaded!

WunderBlogs® & News

Nearby

Air Quality

  Air Quality AQ Index Pollutant
Not available.

Snow Depth

Station Depth Elevation

Earthquake Activity

City Distance Mag. Time & Date
Minimum magnitude displayed is 2.5.

Coastal Water Temperatures

Place Temperature

Stations

Nearby Weather Stations

Station Location Temp. Windchill Dew Point Humidity Wind Precip. Elev Updated Type